sensor_id;sensor_type;location;lat;lon;timestamp;pressure;altitude;pressure_sealevel;temperature;humidity
59831;BME280;45711;50.108;13.712;2023-09-30T00:00:14;98331.66;;;19.46;66.46
59831;BME280;45711;50.108;13.712;2023-09-30T00:02:40;98315.03;;;19.48;64.96
59831;BME280;45711;50.108;13.712;2023-09-30T00:05:06;98326.81;;;19.52;67.35
59831;BME280;45711;50.108;13.712;2023-09-30T00:07:32;98317.13;;;19.42;66.74
59831;BME280;45711;50.108;13.712;2023-09-30T00:09:58;98316.81;;;19.44;67.49
59831;BME280;45711;50.108;13.712;2023-09-30T00:12:23;98308.84;;;19.39;65.79
59831;BME280;45711;50.108;13.712;2023-09-30T00:14:50;98324.50;;;19.42;67.46
59831;BME280;45711;50.108;13.712;2023-09-30T00:17:16;98318.59;;;19.31;65.03
59831;BME280;45711;50.108;13.712;2023-09-30T00:19:41;98322.31;;;19.26;65.52
59831;BME280;45711;50.108;13.712;2023-09-30T00:22:07;98328.16;;;19.37;65.98
59831;BME280;45711;50.108;13.712;2023-09-30T00:24:33;98327.91;;;19.21;64.92
59831;BME280;45711;50.108;13.712;2023-09-30T00:26:59;98330.06;;;19.37;65.01
59831;BME280;45711;50.108;13.712;2023-09-30T00:29:25;98336.75;;;19.01;65.50
59831;BME280;45711;50.108;13.712;2023-09-30T00:31:53;98330.97;;;19.02;65.29
59831;BME280;45711;50.108;13.712;2023-09-30T00:34:18;98329.72;;;19.00;65.85
59831;BME280;45711;50.108;13.712;2023-09-30T00:36:44;98331.06;;;18.59;66.29
59831;BME280;45711;50.108;13.712;2023-09-30T00:39:09;98342.84;;;18.37;67.61
59831;BME280;45711;50.108;13.712;2023-09-30T00:41:35;98338.38;;;18.15;68.70
59831;BME280;45711;50.108;13.712;2023-09-30T00:44:01;98347.47;;;18.19;68.56
59831;BME280;45711;50.108;13.712;2023-09-30T00:46:29;98346.66;;;18.27;68.49
59831;BME280;45711;50.108;13.712;2023-09-30T00:48:59;98344.09;;;17.96;69.53
59831;BME280;45711;50.108;13.712;2023-09-30T00:51:25;98347.00;;;18.52;69.41
59831;BME280;45711;50.108;13.712;2023-09-30T00:53:52;98340.75;;;18.95;66.65
59831;BME280;45711;50.108;13.712;2023-09-30T00:56:18;98343.00;;;18.49;66.70
59831;BME280;45711;50.108;13.712;2023-09-30T00:58:45;98343.50;;;18.86;66.66
59831;BME280;45711;50.108;13.712;2023-09-30T01:01:12;98348.91;;;18.86;67.35
59831;BME280;45711;50.108;13.712;2023-09-30T01:03:38;98349.53;;;18.57;67.12
59831;BME280;45711;50.108;13.712;2023-09-30T01:06:06;98344.91;;;18.66;67.69
59831;BME280;45711;50.108;13.712;2023-09-30T01:08:32;98349.09;;;18.81;67.42
59831;BME280;45711;50.108;13.712;2023-09-30T01:10:58;98344.91;;;18.49;67.67
59831;BME280;45711;50.108;13.712;2023-09-30T01:13:31;98341.09;;;18.50;67.76
59831;BME280;45711;50.108;13.712;2023-09-30T01:15:57;98337.75;;;18.79;67.75
59831;BME280;45711;50.108;13.712;2023-09-30T01:18:22;98338.38;;;18.76;68.30
59831;BME280;45711;50.108;13.712;2023-09-30T01:20:48;98338.38;;;18.50;67.91
59831;BME280;45711;50.108;13.712;2023-09-30T01:23:16;98335.53;;;18.46;67.64
59831;BME280;45711;50.108;13.712;2023-09-30T01:25:42;98345.88;;;18.27;68.44
59831;BME280;45711;50.108;13.712;2023-09-30T01:28:09;98348.28;;;18.72;68.94
59831;BME280;45711;50.108;13.712;2023-09-30T01:30:35;98350.19;;;18.71;68.09
59831;BME280;45711;50.108;13.712;2023-09-30T01:33:01;98355.09;;;18.95;68.25
59831;BME280;45711;50.108;13.712;2023-09-30T01:35:26;98363.28;;;18.69;68.31
59831;BME280;45711;50.108;13.712;2023-09-30T01:37:52;98359.56;;;18.04;68.46
59831;BME280;45711;50.108;13.712;2023-09-30T01:40:19;98369.00;;;18.16;69.73
59831;BME280;45711;50.108;13.712;2023-09-30T01:42:45;98361.16;;;18.23;69.45
59831;BME280;45711;50.108;13.712;2023-09-30T01:45:10;98360.72;;;18.38;68.56
59831;BME280;45711;50.108;13.712;2023-09-30T01:47:36;98356.88;;;18.22;68.89
59831;BME280;45711;50.108;13.712;2023-09-30T01:50:02;98366.06;;;17.95;69.69
59831;BME280;45711;50.108;13.712;2023-09-30T01:52:27;98373.84;;;17.79;70.98
59831;BME280;45711;50.108;13.712;2023-09-30T01:54:53;98378.31;;;17.52;71.41
59831;BME280;45711;50.108;13.712;2023-09-30T01:57:20;98386.00;;;17.59;71.42
59831;BME280;45711;50.108;13.712;2023-09-30T01:59:46;98383.81;;;18.27;70.70
59831;BME280;45711;50.108;13.712;2023-09-30T02:02:12;98376.69;;;17.74;70.52
59831;BME280;45711;50.108;13.712;2023-09-30T02:04:37;98378.28;;;17.75;71.07
59831;BME280;45711;50.108;13.712;2023-09-30T02:07:03;98377.16;;;17.76;70.86
59831;BME280;45711;50.108;13.712;2023-09-30T02:09:29;98390.09;;;17.88;71.88
59831;BME280;45711;50.108;13.712;2023-09-30T02:11:54;98390.28;;;17.91;70.83
59831;BME280;45711;50.108;13.712;2023-09-30T02:14:21;98395.75;;;17.69;72.17
59831;BME280;45711;50.108;13.712;2023-09-30T02:16:47;98401.91;;;17.92;71.35
59831;BME280;45711;50.108;13.712;2023-09-30T02:19:13;98397.13;;;17.97;70.55
59831;BME280;45711;50.108;13.712;2023-09-30T02:21:38;98404.16;;;17.98;70.99
59831;BME280;45711;50.108;13.712;2023-09-30T02:24:04;98406.47;;;17.74;70.75
59831;BME280;45711;50.108;13.712;2023-09-30T02:26:32;98394.94;;;18.17;70.58
59831;BME280;45711;50.108;13.712;2023-09-30T02:28:58;98402.03;;;17.87;70.58
59831;BME280;45711;50.108;13.712;2023-09-30T02:31:25;98408.88;;;17.53;71.55
59831;BME280;45711;50.108;13.712;2023-09-30T02:33:50;98407.31;;;17.52;72.14
59831;BME280;45711;50.108;13.712;2023-09-30T02:36:16;98414.06;;;17.72;71.57
59831;BME280;45711;50.108;13.712;2023-09-30T02:38:42;98415.97;;;17.71;71.75
59831;BME280;45711;50.108;13.712;2023-09-30T02:41:08;98426.63;;;17.37;72.75
59831;BME280;45711;50.108;13.712;2023-09-30T02:43:34;98424.13;;;17.18;74.32
59831;BME280;45711;50.108;13.712;2023-09-30T02:45:59;98438.47;;;16.73;75.82
59831;BME280;45711;50.108;13.712;2023-09-30T02:48:26;98432.69;;;16.89;75.59
59831;BME280;45711;50.108;13.712;2023-09-30T02:50:52;98445.34;;;16.66;76.47
59831;BME280;45711;50.108;13.712;2023-09-30T02:53:17;98444.38;;;16.62;77.22
59831;BME280;45711;50.108;13.712;2023-09-30T02:55:43;98455.84;;;16.31;78.64
59831;BME280;45711;50.108;13.712;2023-09-30T02:58:09;98458.78;;;16.57;78.31
59831;BME280;45711;50.108;13.712;2023-09-30T03:00:34;98457.16;;;16.70;77.94
59831;BME280;45711;50.108;13.712;2023-09-30T03:03:01;98448.03;;;17.02;75.42
59831;BME280;45711;50.108;13.712;2023-09-30T03:05:28;98449.53;;;16.86;76.76
59831;BME280;45711;50.108;13.712;2023-09-30T03:07:57;98455.19;;;16.98;76.32
59831;BME280;45711;50.108;13.712;2023-09-30T03:10:23;98454.44;;;17.06;75.96
59831;BME280;45711;50.108;13.712;2023-09-30T03:12:52;98457.59;;;16.99;75.42
59831;BME280;45711;50.108;13.712;2023-09-30T03:15:17;98463.06;;;17.08;75.40
59831;BME280;45711;50.108;13.712;2023-09-30T03:17:43;98462.94;;;16.91;75.94
59831;BME280;45711;50.108;13.712;2023-09-30T03:20:10;98460.94;;;17.05;75.89
59831;BME280;45711;50.108;13.712;2023-09-30T03:22:42;98473.41;;;17.15;75.76
59831;BME280;45711;50.108;13.712;2023-09-30T03:25:09;98470.91;;;17.18;75.09
59831;BME280;45711;50.108;13.712;2023-09-30T03:27:35;98477.00;;;17.46;74.38
59831;BME280;45711;50.108;13.712;2023-09-30T03:30:02;98480.34;;;17.52;74.49
59831;BME280;45711;50.108;13.712;2023-09-30T03:32:28;98485.44;;;17.76;73.55
59831;BME280;45711;50.108;13.712;2023-09-30T03:34:54;98481.66;;;17.54;73.81
59831;BME280;45711;50.108;13.712;2023-09-30T03:37:24;98488.25;;;17.71;73.87
59831;BME280;45711;50.108;13.712;2023-09-30T03:39:53;98485.88;;;18.00;73.64
59831;BME280;45711;50.108;13.712;2023-09-30T03:42:18;98496.00;;;17.86;73.59
59831;BME280;45711;50.108;13.712;2023-09-30T03:44:44;98492.53;;;17.94;73.07
59831;BME280;45711;50.108;13.712;2023-09-30T03:47:11;98504.41;;;17.84;73.82
59831;BME280;45711;50.108;13.712;2023-09-30T03:49:36;98503.94;;;18.22;72.69
59831;BME280;45711;50.108;13.712;2023-09-30T03:52:03;98514.34;;;18.29;72.88
59831;BME280;45711;50.108;13.712;2023-09-30T03:54:29;98518.97;;;17.97;72.93
59831;BME280;45711;50.108;13.712;2023-09-30T03:56:56;98529.28;;;18.26;71.88
59831;BME280;45711;50.108;13.712;2023-09-30T03:59:22;98529.28;;;18.26;72.07
59831;BME280;45711;50.108;13.712;2023-09-30T04:01:48;98533.31;;;17.98;72.91
59831;BME280;45711;50.108;13.712;2023-09-30T04:04:14;98528.59;;;18.12;71.65
59831;BME280;45711;50.108;13.712;2023-09-30T04:06:39;98510.09;;;18.05;70.67
59831;BME280;45711;50.108;13.712;2023-09-30T04:09:05;98524.00;;;17.81;71.72
59831;BME280;45711;50.108;13.712;2023-09-30T04:11:35;98531.56;;;18.02;70.73
59831;BME280;45711;50.108;13.712;2023-09-30T04:14:03;98529.00;;;18.37;69.49
59831;BME280;45711;50.108;13.712;2023-09-30T04:16:28;98527.72;;;17.63;69.90
59831;BME280;45711;50.108;13.712;2023-09-30T04:18:55;98533.97;;;17.72;69.48
59831;BME280;45711;50.108;13.712;2023-09-30T04:21:21;98542.63;;;18.14;69.87
59831;BME280;45711;50.108;13.712;2023-09-30T04:23:46;98550.28;;;17.81;69.96
59831;BME280;45711;50.108;13.712;2023-09-30T04:26:12;98557.59;;;17.80;70.00
59831;BME280;45711;50.108;13.712;2023-09-30T04:28:37;98552.22;;;17.89;69.02
59831;BME280;45711;50.108;13.712;2023-09-30T04:31:05;98548.81;;;17.75;67.75
59831;BME280;45711;50.108;13.712;2023-09-30T04:33:32;98550.50;;;17.71;69.75
59831;BME280;45711;50.108;13.712;2023-09-30T04:36:00;98543.63;;;17.65;68.15
59831;BME280;45711;50.108;13.712;2023-09-30T04:38:25;98551.78;;;17.96;69.11
59831;BME280;45711;50.108;13.712;2023-09-30T04:40:51;98554.97;;;17.98;68.32
59831;BME280;45711;50.108;13.712;2023-09-30T04:43:17;98568.41;;;18.03;67.68
59831;BME280;45711;50.108;13.712;2023-09-30T04:45:43;98559.44;;;17.94;67.62
59831;BME280;45711;50.108;13.712;2023-09-30T04:48:09;98574.44;;;17.55;68.23
59831;BME280;45711;50.108;13.712;2023-09-30T04:50:35;98589.91;;;17.54;67.39
59831;BME280;45711;50.108;13.712;2023-09-30T04:53:01;98583.25;;;17.61;66.66
59831;BME280;45711;50.108;13.712;2023-09-30T04:55:27;98584.56;;;17.86;67.43
59831;BME280;45711;50.108;13.712;2023-09-30T04:57:53;98591.56;;;17.28;66.74
59831;BME280;45711;50.108;13.712;2023-09-30T05:00:19;98598.00;;;17.18;67.51
59831;BME280;45711;50.108;13.712;2023-09-30T05:02:50;98603.09;;;17.33;66.84
59831;BME280;45711;50.108;13.712;2023-09-30T05:05:19;98618.53;;;17.55;68.07
59831;BME280;45711;50.108;13.712;2023-09-30T05:07:44;98609.72;;;17.50;67.30
59831;BME280;45711;50.108;13.712;2023-09-30T05:10:12;98614.00;;;17.42;68.79
59831;BME280;45711;50.108;13.712;2023-09-30T05:12:41;98622.09;;;17.42;68.54
59831;BME280;45711;50.108;13.712;2023-09-30T05:15:11;98619.28;;;16.97;68.17
59831;BME280;45711;50.108;13.712;2023-09-30T05:17:36;98622.66;;;17.53;67.43
59831;BME280;45711;50.108;13.712;2023-09-30T05:20:02;98622.44;;;17.63;67.28
59831;BME280;45711;50.108;13.712;2023-09-30T05:22:33;98612.38;;;17.05;68.38
59831;BME280;45711;50.108;13.712;2023-09-30T05:24:59;98615.91;;;17.42;68.49
59831;BME280;45711;50.108;13.712;2023-09-30T05:27:26;98611.50;;;17.32;69.58
59831;BME280;45711;50.108;13.712;2023-09-30T05:29:52;98615.78;;;16.97;69.36
59831;BME280;45711;50.108;13.712;2023-09-30T05:32:18;98618.22;;;17.57;69.25
59831;BME280;45711;50.108;13.712;2023-09-30T05:34:44;98619.41;;;17.42;69.62
59831;BME280;45711;50.108;13.712;2023-09-30T05:37:09;98632.81;;;17.70;69.04
59831;BME280;45711;50.108;13.712;2023-09-30T05:39:36;98624.91;;;16.46;70.10
59831;BME280;45711;50.108;13.712;2023-09-30T05:42:02;98638.31;;;17.20;71.77
59831;BME280;45711;50.108;13.712;2023-09-30T05:44:29;98642.59;;;17.21;71.49
59831;BME280;45711;50.108;13.712;2023-09-30T05:46:54;98642.84;;;16.83;71.90
59831;BME280;45711;50.108;13.712;2023-09-30T05:49:20;98643.56;;;17.61;70.43
59831;BME280;45711;50.108;13.712;2023-09-30T05:51:45;98641.72;;;16.70;70.81
59831;BME280;45711;50.108;13.712;2023-09-30T05:54:12;98640.22;;;16.64;72.20
59831;BME280;45711;50.108;13.712;2023-09-30T05:56:39;98652.09;;;16.49;71.44
59831;BME280;45711;50.108;13.712;2023-09-30T05:59:07;98649.19;;;17.15;71.58
59831;BME280;45711;50.108;13.712;2023-09-30T06:01:33;98662.53;;;16.97;71.52
59831;BME280;45711;50.108;13.712;2023-09-30T06:03:59;98663.00;;;17.27;70.57
59831;BME280;45711;50.108;13.712;2023-09-30T06:06:25;98657.97;;;16.98;69.78
59831;BME280;45711;50.108;13.712;2023-09-30T06:08:51;98674.28;;;16.79;73.55
59831;BME280;45711;50.108;13.712;2023-09-30T06:11:17;98676.19;;;16.32;72.70
59831;BME280;45711;50.108;13.712;2023-09-30T06:13:44;98661.25;;;16.07;73.50
59831;BME280;45711;50.108;13.712;2023-09-30T06:16:10;98663.44;;;17.20;73.74
59831;BME280;45711;50.108;13.712;2023-09-30T06:18:36;98649.91;;;16.51;72.15
59831;BME280;45711;50.108;13.712;2023-09-30T06:21:02;98661.88;;;16.78;71.67
59831;BME280;45711;50.108;13.712;2023-09-30T06:23:29;98662.16;;;16.90;70.18
59831;BME280;45711;50.108;13.712;2023-09-30T06:25:55;98670.28;;;17.40;71.52
59831;BME280;45711;50.108;13.712;2023-09-30T06:28:21;98665.53;;;16.68;70.55
59831;BME280;45711;50.108;13.712;2023-09-30T06:30:52;98666.50;;;16.31;69.92
59831;BME280;45711;50.108;13.712;2023-09-30T06:33:18;98662.84;;;16.96;67.55
59831;BME280;45711;50.108;13.712;2023-09-30T06:35:43;98681.75;;;17.37;69.89
59831;BME280;45711;50.108;13.712;2023-09-30T06:38:16;98677.38;;;16.86;67.95
59831;BME280;45711;50.108;13.712;2023-09-30T06:40:42;98693.38;;;17.38;68.25
59831;BME280;45711;50.108;13.712;2023-09-30T06:43:08;98698.66;;;17.43;68.37
59831;BME280;45711;50.108;13.712;2023-09-30T06:45:34;98689.94;;;17.32;67.57
59831;BME280;45711;50.108;13.712;2023-09-30T06:48:01;98689.50;;;17.02;66.37
59831;BME280;45711;50.108;13.712;2023-09-30T06:50:26;98708.19;;;17.26;67.03
59831;BME280;45711;50.108;13.712;2023-09-30T06:52:52;98708.78;;;17.23;65.04
59831;BME280;45711;50.108;13.712;2023-09-30T06:55:17;98728.84;;;16.95;67.93
59831;BME280;45711;50.108;13.712;2023-09-30T06:57:43;98726.47;;;16.61;67.23
59831;BME280;45711;50.108;13.712;2023-09-30T07:00:10;98728.06;;;17.58;67.04
59831;BME280;45711;50.108;13.712;2023-09-30T07:02:37;98719.22;;;16.75;65.88
59831;BME280;45711;50.108;13.712;2023-09-30T07:05:07;98727.59;;;16.59;68.37
59831;BME280;45711;50.108;13.712;2023-09-30T07:07:33;98732.56;;;17.13;68.43
59831;BME280;45711;50.108;13.712;2023-09-30T07:09:58;98734.25;;;17.08;67.06
59831;BME280;45711;50.108;13.712;2023-09-30T07:12:24;98725.25;;;16.99;65.29
59831;BME280;45711;50.108;13.712;2023-09-30T07:14:49;98729.78;;;16.71;65.41
59831;BME280;45711;50.108;13.712;2023-09-30T07:17:15;98737.84;;;16.44;66.14
59831;BME280;45711;50.108;13.712;2023-09-30T07:19:40;98731.75;;;16.98;64.47
59831;BME280;45711;50.108;13.712;2023-09-30T07:22:07;98742.81;;;16.69;65.41
59831;BME280;45711;50.108;13.712;2023-09-30T07:24:33;98749.78;;;17.03;64.48
59831;BME280;45711;50.108;13.712;2023-09-30T07:26:59;98752.88;;;17.24;66.69
59831;BME280;45711;50.108;13.712;2023-09-30T07:29:24;98755.97;;;17.31;66.26
59831;BME280;45711;50.108;13.712;2023-09-30T07:31:50;98756.53;;;17.69;65.21
59831;BME280;45711;50.108;13.712;2023-09-30T07:34:16;98753.41;;;17.76;64.07
59831;BME280;45711;50.108;13.712;2023-09-30T07:36:41;98744.22;;;17.49;65.05
59831;BME280;45711;50.108;13.712;2023-09-30T07:39:09;98746.66;;;17.51;63.75
59831;BME280;45711;50.108;13.712;2023-09-30T07:41:34;98752.56;;;18.03;62.96
59831;BME280;45711;50.108;13.712;2023-09-30T07:44:02;98755.19;;;18.39;60.88
59831;BME280;45711;50.108;13.712;2023-09-30T07:46:28;98753.03;;;18.05;59.85
59831;BME280;45711;50.108;13.712;2023-09-30T07:48:53;98765.97;;;18.53;60.79
59831;BME280;45711;50.108;13.712;2023-09-30T07:51:20;98766.28;;;18.29;60.42
59831;BME280;45711;50.108;13.712;2023-09-30T07:53:45;98770.19;;;18.90;58.69
59831;BME280;45711;50.108;13.712;2023-09-30T07:56:12;98760.81;;;19.05;57.66
59831;BME280;45711;50.108;13.712;2023-09-30T07:58:38;98768.31;;;18.99;56.38
59831;BME280;45711;50.108;13.712;2023-09-30T08:01:04;98762.63;;;18.56;56.62
59831;BME280;45711;50.108;13.712;2023-09-30T08:03:29;98759.09;;;19.09;57.59
59831;BME280;45711;50.108;13.712;2023-09-30T08:05:55;98763.16;;;18.67;56.21
59831;BME280;45711;50.108;13.712;2023-09-30T08:08:21;98761.66;;;18.74;59.49
59831;BME280;45711;50.108;13.712;2023-09-30T08:10:47;98755.38;;;18.96;59.08
59831;BME280;45711;50.108;13.712;2023-09-30T08:13:14;98755.31;;;18.88;57.17
59831;BME280;45711;50.108;13.712;2023-09-30T08:15:40;98764.25;;;18.12;57.13
59831;BME280;45711;50.108;13.712;2023-09-30T08:18:06;98762.63;;;18.78;55.97
59831;BME280;45711;50.108;13.712;2023-09-30T08:20:33;98767.22;;;19.09;55.86
59831;BME280;45711;50.108;13.712;2023-09-30T08:22:59;98772.50;;;18.74;55.15
59831;BME280;45711;50.108;13.712;2023-09-30T08:25:25;98774.47;;;19.31;57.39
59831;BME280;45711;50.108;13.712;2023-09-30T08:27:50;98785.13;;;19.19;57.97
59831;BME280;45711;50.108;13.712;2023-09-30T08:30:18;98786.44;;;19.21;59.75
59831;BME280;45711;50.108;13.712;2023-09-30T08:32:43;98790.63;;;19.45;60.41
59831;BME280;45711;50.108;13.712;2023-09-30T08:35:09;98786.97;;;19.41;55.66
59831;BME280;45711;50.108;13.712;2023-09-30T08:37:35;98780.72;;;19.31;56.24
59831;BME280;45711;50.108;13.712;2023-09-30T08:40:00;98783.53;;;19.66;58.68
59831;BME280;45711;50.108;13.712;2023-09-30T08:42:27;98767.72;;;19.20;55.85
59831;BME280;45711;50.108;13.712;2023-09-30T08:44:58;98762.44;;;19.63;55.39
59831;BME280;45711;50.108;13.712;2023-09-30T08:47:26;98766.38;;;19.40;56.24
59831;BME280;45711;50.108;13.712;2023-09-30T08:49:54;98771.28;;;19.29;59.35
59831;BME280;45711;50.108;13.712;2023-09-30T08:52:23;98776.09;;;19.41;60.50
59831;BME280;45711;50.108;13.712;2023-09-30T08:54:50;98780.09;;;19.34;56.14
59831;BME280;45711;50.108;13.712;2023-09-30T08:57:18;98783.56;;;19.26;58.88
59831;BME280;45711;50.108;13.712;2023-09-30T08:59:46;98775.81;;;19.51;55.21
59831;BME280;45711;50.108;13.712;2023-09-30T09:02:13;98767.28;;;19.26;53.80
59831;BME280;45711;50.108;13.712;2023-09-30T09:04:41;98776.53;;;19.17;58.50
59831;BME280;45711;50.108;13.712;2023-09-30T09:07:06;98777.44;;;19.03;54.74
59831;BME280;45711;50.108;13.712;2023-09-30T09:09:32;98794.44;;;18.95;59.18
59831;BME280;45711;50.108;13.712;2023-09-30T09:11:58;98782.53;;;19.05;54.18
59831;BME280;45711;50.108;13.712;2023-09-30T09:14:36;98788.00;;;18.82;56.55
59831;BME280;45711;50.108;13.712;2023-09-30T09:17:02;98787.47;;;18.72;54.63
59831;BME280;45711;50.108;13.712;2023-09-30T09:19:30;98786.66;;;18.71;54.39
59831;BME280;45711;50.108;13.712;2023-09-30T09:21:58;98786.94;;;18.92;54.69
59831;BME280;45711;50.108;13.712;2023-09-30T09:24:29;98778.69;;;19.06;55.81
59831;BME280;45711;50.108;13.712;2023-09-30T09:27:04;98797.00;;;19.31;56.06
59831;BME280;45711;50.108;13.712;2023-09-30T09:29:30;98799.41;;;18.71;54.16
59831;BME280;45711;50.108;13.712;2023-09-30T09:32:06;98800.41;;;19.06;58.60
59831;BME280;45711;50.108;13.712;2023-09-30T09:34:32;98805.47;;;18.99;56.79
59831;BME280;45711;50.108;13.712;2023-09-30T09:36:59;98808.66;;;18.70;55.23
59831;BME280;45711;50.108;13.712;2023-09-30T09:39:29;98816.94;;;18.96;60.96
59831;BME280;45711;50.108;13.712;2023-09-30T09:41:56;98816.63;;;18.97;59.31
59831;BME280;45711;50.108;13.712;2023-09-30T09:44:23;98817.78;;;19.05;58.72
59831;BME280;45711;50.108;13.712;2023-09-30T09:46:50;98800.09;;;19.07;54.33
59831;BME280;45711;50.108;13.712;2023-09-30T09:49:17;98794.16;;;19.05;56.17
59831;BME280;45711;50.108;13.712;2023-09-30T09:51:43;98806.47;;;19.03;58.84
59831;BME280;45711;50.108;13.712;2023-09-30T09:54:12;98810.25;;;19.02;59.70
59831;BME280;45711;50.108;13.712;2023-09-30T09:56:39;98809.50;;;19.10;53.64
59831;BME280;45711;50.108;13.712;2023-09-30T09:59:05;98797.59;;;19.28;52.20
59831;BME280;45711;50.108;13.712;2023-09-30T10:01:34;98796.91;;;19.14;57.76
59831;BME280;45711;50.108;13.712;2023-09-30T10:04:00;98797.94;;;19.27;57.61
59831;BME280;45711;50.108;13.712;2023-09-30T10:06:26;98801.44;;;19.27;54.96
59831;BME280;45711;50.108;13.712;2023-09-30T10:08:52;98801.19;;;19.46;57.85
59831;BME280;45711;50.108;13.712;2023-09-30T10:11:21;98802.09;;;19.24;52.62
59831;BME280;45711;50.108;13.712;2023-09-30T10:13:52;98799.88;;;19.35;53.00
59831;BME280;45711;50.108;13.712;2023-09-30T10:16:47;98810.25;;;19.33;55.45
59831;BME280;45711;50.108;13.712;2023-09-30T10:19:14;98798.84;;;19.62;51.98
59831;BME280;45711;50.108;13.712;2023-09-30T10:22:20;98815.56;;;19.47;59.48
59831;BME280;45711;50.108;13.712;2023-09-30T10:24:48;98809.38;;;19.55;57.86
59831;BME280;45711;50.108;13.712;2023-09-30T10:27:35;98804.00;;;19.32;52.02
59831;BME280;45711;50.108;13.712;2023-09-30T10:30:07;98811.09;;;19.42;59.46
59831;BME280;45711;50.108;13.712;2023-09-30T10:33:09;98801.34;;;19.50;50.64
59831;BME280;45711;50.108;13.712;2023-09-30T10:35:43;98802.69;;;19.61;51.67
59831;BME280;45711;50.108;13.712;2023-09-30T10:38:37;98796.66;;;19.81;49.13
59831;BME280;45711;50.108;13.712;2023-09-30T10:41:06;98812.78;;;19.69;58.64
59831;BME280;45711;50.108;13.712;2023-09-30T10:43:36;98804.16;;;19.84;50.60
59831;BME280;45711;50.108;13.712;2023-09-30T10:46:02;98807.88;;;19.40;56.54
59831;BME280;45711;50.108;13.712;2023-09-30T10:48:37;98799.84;;;19.75;53.63
59831;BME280;45711;50.108;13.712;2023-09-30T10:51:14;98812.44;;;19.62;57.62
59831;BME280;45711;50.108;13.712;2023-09-30T10:53:42;98800.28;;;19.59;54.20
59831;BME280;45711;50.108;13.712;2023-09-30T10:56:08;98802.94;;;19.42;59.98
59831;BME280;45711;50.108;13.712;2023-09-30T10:58:43;98793.84;;;19.47;52.63
59831;BME280;45711;50.108;13.712;2023-09-30T11:01:12;98798.84;;;19.62;51.96
59831;BME280;45711;50.108;13.712;2023-09-30T11:03:41;98802.78;;;19.39;58.02
59831;BME280;45711;50.108;13.712;2023-09-30T11:06:08;98795.88;;;19.72;52.52
59831;BME280;45711;50.108;13.712;2023-09-30T11:08:41;98795.53;;;19.74;54.92
59831;BME280;45711;50.108;13.712;2023-09-30T11:11:09;98790.28;;;19.95;56.30
59831;BME280;45711;50.108;13.712;2023-09-30T11:13:36;98794.97;;;19.54;56.19
59831;BME280;45711;50.108;13.712;2023-09-30T11:16:04;98792.66;;;19.70;52.17
59831;BME280;45711;50.108;13.712;2023-09-30T11:18:30;98787.41;;;20.08;50.79
59831;BME280;45711;50.108;13.712;2023-09-30T11:21:10;98783.41;;;19.89;54.65
59831;BME280;45711;50.108;13.712;2023-09-30T11:23:41;98775.75;;;19.82;52.03
59831;BME280;45711;50.108;13.712;2023-09-30T11:26:07;98773.19;;;19.77;55.70
59831;BME280;45711;50.108;13.712;2023-09-30T11:28:37;98772.53;;;19.89;50.85
59831;BME280;45711;50.108;13.712;2023-09-30T11:31:07;98790.81;;;19.48;59.69
59831;BME280;45711;50.108;13.712;2023-09-30T11:33:47;98768.03;;;19.67;51.38
59831;BME280;45711;50.108;13.712;2023-09-30T11:36:13;98763.91;;;19.78;56.38
59831;BME280;45711;50.108;13.712;2023-09-30T11:38:44;98768.06;;;19.75;58.97
59831;BME280;45711;50.108;13.712;2023-09-30T11:41:10;98769.44;;;19.55;57.56
59831;BME280;45711;50.108;13.712;2023-09-30T11:43:36;98768.94;;;19.53;56.42
59831;BME280;45711;50.108;13.712;2023-09-30T11:46:07;98765.97;;;19.64;49.99
59831;BME280;45711;50.108;13.712;2023-09-30T11:48:34;98779.16;;;19.48;59.29
59831;BME280;45711;50.108;13.712;2023-09-30T11:51:00;98759.13;;;19.83;52.49
59831;BME280;45711;50.108;13.712;2023-09-30T11:53:28;98769.63;;;19.59;55.17
59831;BME280;45711;50.108;13.712;2023-09-30T11:55:56;98764.53;;;19.83;55.00
59831;BME280;45711;50.108;13.712;2023-09-30T11:58:21;98775.22;;;19.63;57.65
59831;BME280;45711;50.108;13.712;2023-09-30T12:00:47;98759.44;;;19.82;55.13
59831;BME280;45711;50.108;13.712;2023-09-30T12:03:17;98751.75;;;19.75;52.82
59831;BME280;45711;50.108;13.712;2023-09-30T12:05:43;98755.59;;;19.66;51.69
59831;BME280;45711;50.108;13.712;2023-09-30T12:08:11;98753.53;;;20.06;48.28
59831;BME280;45711;50.108;13.712;2023-09-30T12:10:36;98755.78;;;19.95;49.20
59831;BME280;45711;50.108;13.712;2023-09-30T12:13:02;98757.97;;;19.67;54.81
59831;BME280;45711;50.108;13.712;2023-09-30T12:15:28;98753.03;;;19.69;50.43
59831;BME280;45711;50.108;13.712;2023-09-30T12:17:54;98760.69;;;19.67;57.11
59831;BME280;45711;50.108;13.712;2023-09-30T12:20:21;98744.13;;;19.95;45.19
59831;BME280;45711;50.108;13.712;2023-09-30T12:22:46;98742.19;;;19.69;50.41
59831;BME280;45711;50.108;13.712;2023-09-30T12:25:12;98737.56;;;19.78;55.55
59831;BME280;45711;50.108;13.712;2023-09-30T12:27:37;98744.34;;;19.50;57.47
59831;BME280;45711;50.108;13.712;2023-09-30T12:30:06;98755.69;;;19.52;57.94
59831;BME280;45711;50.108;13.712;2023-09-30T12:32:32;98729.56;;;20.08;41.44
59831;BME280;45711;50.108;13.712;2023-09-30T12:34:57;98741.97;;;19.48;55.44
59831;BME280;45711;50.108;13.712;2023-09-30T12:37:24;98738.63;;;19.60;57.57
59831;BME280;45711;50.108;13.712;2023-09-30T12:39:50;98741.22;;;20.00;53.06
59831;BME280;45711;50.108;13.712;2023-09-30T12:42:16;98743.31;;;19.68;50.35
59831;BME280;45711;50.108;13.712;2023-09-30T12:44:42;98739.47;;;19.61;52.86
59831;BME280;45711;50.108;13.712;2023-09-30T12:47:08;98741.47;;;19.38;57.92
59831;BME280;45711;50.108;13.712;2023-09-30T12:49:33;98729.34;;;19.52;48.69